Latest Weather Observations for Marree Airport

IDS60801

Issued at 9:01 pm CST Tuesday 26 May 2015 (issued every 30 minutes, with the page automatically refreshed every 10 minutes)

About weather observations | Map of weather stations | Latest weather observations for SA | Other Formats
Station Details ID: 017126 Name: MARREE AERO Lat: -29.66 Lon: 138.07 Height: 50.0 m
Data from the previous 72 hours. | See also: Recent months for locations in South Australia
Date/Time
CST
Temp
°C
App
Temp
°C
Dew
Point
Rel
Hum
%
Delta-T
°C
Wind Press
QNH
hPa
Press
MSL
hPa
Rain
since 9 am
mm
Dir
 
Spd
km/h
Gust
km/h
Spd
kts
Gust
kts
26/09:00pm 19.3 17.6 10.0 55 5.0 NNE 9 11 5 6 1022.6 1022.6 0.0
26/08:30pm 19.3 17.6 9.8 54 5.0 N 9 11 5 6 1022.8 - 0.0
26/08:00pm 19.9 17.9 10.0 53 5.3 N 11 13 6 7 1022.6 - 0.0
26/07:30pm 21.0 19.0 10.2 50 5.9 N 11 13 6 7 1022.4 - 0.0
26/07:00pm 22.0 19.6 10.2 47 6.4 N 13 15 7 8 1022.2 - 0.0
26/06:30pm 22.5 20.2 10.3 46 6.7 N 13 15 7 8 1021.9 - 0.0
26/06:00pm 23.0 21.1 10.4 45 6.9 N 11 13 6 7 1021.7 1021.7 0.0
26/05:30pm 23.6 21.3 10.3 43 7.3 NNE 13 17 7 9 1021.6 - 0.0
26/05:00pm 24.1 21.9 10.7 43 7.5 N 13 15 7 8 1021.4 - 0.0
26/04:30pm 24.4 22.2 10.7 42 7.6 N 13 19 7 10 1021.3 - 0.0
26/04:00pm 24.6 22.9 11.2 43 7.5 N 11 15 6 8 1021.3 - 0.0
26/03:30pm 24.6 23.2 10.8 42 7.7 N 9 17 5 9 1021.3 - 0.0
26/03:00pm 24.9 22.5 10.0 39 8.2 N 13 19 7 10 1021.4 1021.4 0.0
26/02:30pm 24.4 22.2 9.2 38 8.3 NNE 11 19 6 10 1021.6 - 0.0
26/02:00pm 24.3 22.5 9.5 39 8.1 NNE 9 13 5 7 1022.0 - 0.0
26/01:30pm 23.9 22.4 9.1 39 8.0 NNE 7 13 4 7 1022.4 - 0.0
26/01:00pm 23.5 21.6 10.6 44 7.1 NNE 11 17 6 9 1023.0 - 0.0
26/12:30pm 23.7 21.2 11.1 45 7.0 NE 15 22 8 12 1023.4 - 0.0
26/12:00pm 23.3 20.7 10.7 45 7.0 NE 15 20 8 11 1023.8 1023.8 0.0
26/11:30am 22.5 18.8 9.6 44 7.0 NE 19 22 10 12 1024.5 - 0.0
26/11:00am 22.1 18.0 8.6 42 7.2 NE 20 24 11 13 1024.8 - 0.0
26/10:30am 21.4 17.7 8.0 42 7.0 ENE 17 20 9 11 1025.3 - 0.0
26/10:00am 21.3 17.4 7.2 40 7.3 NE 17 24 9 13 1025.7 - 0.0
26/09:30am 20.0 17.1 6.7 42 6.7 ESE 11 15 6 8 1025.9 - 0.0
26/09:00am 18.3 15.1 6.8 47 5.7 SE 13 15 7 8 1025.7 1025.7 0.0
26/08:30am 17.5 14.6 6.7 49 5.4 SSE 11 13 6 7 1026.1 - 0.0
26/08:00am 16.6 13.4 6.7 52 4.9 SE 13 15 7 8 1025.6 - 0.0
26/07:30am 16.2 12.9 6.6 53 4.7 SE 13 17 7 9 1025.4 - 0.0
26/07:00am 16.0 13.1 6.7 54 4.6 SSE 11 11 6 6 1025.4 - 0.0
26/06:30am 16.1 13.6 6.5 53 4.7 SE 9 11 5 6 1025.3 - 0.0
26/06:00am 16.2 13.3 6.3 52 4.8 SE 11 13 6 7 1024.7 1024.7 0.0
26/05:30am 16.5 12.8 6.3 51 5.0 SSE 15 17 8 9 1024.3 - 0.0
26/05:00am 16.7 13.0 6.2 50 5.1 SSE 15 17 8 9 1024.4 - 0.0
26/04:30am 16.3 13.4 6.7 53 4.7 SSE 11 13 6 7 1024.7 - 0.0
26/04:00am 16.6 13.7 6.7 52 4.9 S 11 13 6 7 1025.2 - 0.0
26/03:30am 16.7 14.1 6.2 50 5.1 SE 9 9 5 5 1025.1 - 0.0
26/03:00am 16.6 13.7 6.7 52 4.9 SSE 11 13 6 7 1024.9 1024.9 0.0
26/02:30am 16.0 15.5 7.7 58 4.2 CALM 0 0 0 0 1025.6 - 0.0
26/02:00am 16.5 15.9 7.4 55 4.6 CALM 0 0 0 0 1025.6 - 0.0
26/01:30am 16.4 15.1 7.6 56 4.4 NNW 4 7 2 4 1025.9 - 0.0
26/01:00am 17.4 14.8 6.3 48 5.5 SE 9 11 5 6 1025.7 - 0.0
26/12:30am 17.5 15.2 5.8 46 5.7 E 7 9 4 5 1025.8 - 0.0
26/12:00am 17.9 14.8 5.5 44 6.0 E 11 13 6 7 1025.4 1025.4 0.0
 
Date/Time
CST
Temp
°C
App
Temp
°C
Dew
Point
Rel
Hum
%
Delta-T
°C
Wind Press
QNH
hPa
Press
MSL
hPa
Rain
since 9 am
mm
Dir
 
Spd
km/h
Gust
km/h
Spd
kts
Gust
kts
25/11:30pm 18.2 14.7 5.4 43 6.2 E 13 15 7 8 1025.7 - 0.0
25/11:00pm 18.4 14.1 5.3 42 6.4 E 17 19 9 10 1025.7 - 0.0
25/10:30pm 18.6 14.6 5.1 41 6.5 ENE 15 19 8 10 1025.9 - 0.0
25/10:00pm 19.1 14.7 4.8 39 6.9 ENE 17 20 9 11 1026.3 - 0.0
25/09:30pm 19.3 15.2 4.6 38 7.1 ENE 15 19 8 10 1026.4 - 0.0
25/09:00pm 19.6 15.5 4.5 37 7.2 ENE 15 19 8 10 1026.2 1026.2 0.0
25/08:30pm 19.5 15.9 5.2 39 7.0 ENE 13 13 7 7 1026.2 - 0.0
25/08:00pm 19.3 16.2 5.4 40 6.8 E 11 13 6 7 1025.8 - 0.0
25/07:30pm 19.6 16.5 5.6 40 6.9 E 11 13 6 7 1025.5 - 0.0
25/07:00pm 20.5 17.4 5.7 38 7.4 ENE 11 11 6 6 1025.6 - 0.0
25/06:30pm 20.4 17.7 5.6 38 7.3 ENE 9 11 5 6 1025.1 - 0.0
25/06:00pm 21.4 19.1 5.7 36 7.8 NE 7 9 4 5 1025.1 1025.1 0.0
25/05:30pm 22.5 19.9 5.9 34 8.4 NE 9 11 5 6 1024.7 - 0.0
25/05:00pm 23.1 20.4 5.5 32 8.9 ENE 9 13 5 7 1024.5 - 0.0
25/04:30pm 23.3 20.6 5.7 32 8.9 ENE 9 13 5 7 1024.6 - 0.0
25/04:00pm 23.6 21.4 6.0 32 9.0 NE 7 11 4 6 1024.5 - 0.0
25/03:30pm 24.0 20.5 5.4 30 9.4 NE 13 20 7 11 1024.1 - 0.0
25/03:00pm 24.1 21.1 5.9 31 9.3 NNE 11 15 6 8 1024.0 1024.0 0.0
25/02:30pm 23.7 20.6 5.6 31 9.2 NE 11 15 6 8 1023.9 - 0.0
25/02:00pm 23.5 19.6 5.4 31 9.1 ENE 15 20 8 11 1024.1 - 0.0
25/01:30pm 22.5 18.9 5.0 32 8.7 NE 13 19 7 10 1024.6 - 0.0
25/01:00pm 22.6 18.6 5.1 32 8.7 NE 15 20 8 11 1025.1 - 0.0
25/12:30pm 22.4 19.3 5.4 33 8.5 ENE 11 19 6 10 1025.9 - 0.0
25/12:00pm 21.3 17.4 5.2 35 7.9 NE 15 19 8 10 1026.3 1026.3 0.0
25/11:30am 20.9 17.4 5.3 36 7.7 ENE 13 19 7 10 1026.9 - 0.0
25/11:00am 20.6 16.0 5.4 37 7.5 NE 19 24 10 13 1027.0 - 0.0
25/10:30am 19.5 16.1 5.9 41 6.7 E 13 19 7 10 1027.3 - 0.0
25/10:00am 17.4 14.1 6.3 48 5.5 SE 13 19 7 10 1027.5 - 0.0
25/09:30am 16.1 12.3 6.0 51 4.9 SE 15 19 8 10 1027.4 - 0.0
25/09:00am 15.2 11.1 6.0 54 4.4 SE 17 20 9 11 1027.1 1027.1 0.0
25/08:30am 14.6 10.4 5.9 56 4.2 SE 17 19 9 10 1027.3 - 0.0
25/08:00am 13.8 9.6 5.9 59 3.8 SSE 17 20 9 11 1027.4 - 0.0
25/07:30am 13.0 9.2 5.9 62 3.4 SSE 15 19 8 10 1027.6 - 0.0
25/07:00am 12.6 9.2 5.8 63 3.2 SSE 13 17 7 9 1027.2 - 0.0
25/06:30am 12.3 8.9 5.7 64 3.1 SSE 13 17 7 9 1026.8 - 0.0
25/06:00am 12.3 8.1 5.7 64 3.1 SSE 17 19 9 10 1026.2 1026.2 0.0
25/05:30am 11.9 8.0 5.5 65 3.0 S 15 17 8 9 1025.9 - 0.0
25/05:00am 13.4 9.6 5.8 60 3.6 ESE 15 17 8 9 1025.6 - 0.0
25/04:30am 13.8 9.6 5.9 59 3.8 SE 17 22 9 12 1026.0 - 0.0
25/04:00am 13.9 9.2 6.0 59 3.8 SSE 20 22 11 12 1026.2 - 0.0
25/03:30am 12.7 8.1 5.4 61 3.4 SSE 19 20 10 11 1026.1 - 0.0
25/03:00am 13.0 9.5 5.4 60 3.5 SE 13 17 7 9 1026.2 1026.2 0.0
25/02:30am 12.7 9.8 4.7 58 3.7 ESE 9 13 5 7 1026.1 - 0.0
25/02:00am 13.5 10.3 5.2 57 3.9 E 11 15 6 8 1026.5 - 0.0
25/01:30am 14.1 10.5 5.2 55 4.2 E 13 17 7 9 1026.3 - 0.0
25/01:00am 14.5 9.8 5.3 54 4.3 S 19 20 10 11 1026.6 - 0.0
25/12:30am 13.6 9.9 4.7 55 4.1 SE 13 15 7 8 1026.5 - 0.0
25/12:00am 14.0 9.9 4.6 53 4.3 SE 15 17 8 9 1026.5 1026.5 0.0
 
Date/Time
CST
Temp
°C
App
Temp
°C
Dew
Point
Rel
Hum
%
Delta-T
°C
Wind Press
QNH
hPa
Press
MSL
hPa
Rain
since 9 am
mm
Dir
 
Spd
km/h
Gust
km/h
Spd
kts
Gust
kts
24/11:30pm 15.0 11.8 5.0 51 4.7 SE 11 15 6 8 1026.9 - 0.0
24/11:00pm 16.7 12.1 5.6 48 5.4 E 19 24 10 13 1026.3 - 0.0
24/10:30pm 16.8 12.5 5.1 46 5.6 E 17 22 9 12 1026.4 - 0.0
24/10:00pm 17.1 13.1 4.8 44 5.9 E 15 20 8 11 1026.9 - 0.0
24/09:30pm 17.5 12.5 4.8 43 6.1 E 20 26 11 14 1026.6 - 0.0
24/09:00pm 17.8 12.8 4.7 42 6.2 E 20 26 11 14 1026.5 1026.5 0.0
24/08:30pm 17.4 12.7 5.0 44 5.9 E 19 22 10 12 1026.3 - 0.0
24/08:00pm 17.2 12.9 5.2 45 5.8 E 17 20 9 11 1026.5 - 0.0
24/07:30pm 17.0 13.0 5.0 45 5.7 ESE 15 19 8 10 1026.7 - 0.0
24/07:00pm 16.5 12.8 4.5 45 5.7 SE 13 15 7 8 1026.7 - 0.0
24/06:30pm 16.9 12.7 3.9 42 6.1 ESE 15 17 8 9 1026.2 - 0.0
24/06:00pm 18.2 14.4 4.0 39 6.7 ESE 13 15 7 8 1026.0 1026.0 0.0
24/05:30pm 19.3 15.4 3.5 35 7.5 ESE 13 17 7 9 1025.8 - 0.0
24/05:00pm 20.0 16.5 3.7 34 7.8 E 11 15 6 8 1025.8 - 0.0
24/04:30pm 20.3 16.8 3.5 33 8.0 ESE 11 15 6 8 1025.6 - 0.0
24/04:00pm 20.5 17.0 3.7 33 8.0 ENE 11 17 6 9 1025.6 - 0.0
24/03:30pm 20.8 17.0 4.0 33 8.1 E 13 20 7 11 1025.3 - 0.0
24/03:00pm 20.4 17.0 4.0 34 7.8 NE 11 15 6 8 1025.5 1025.5 0.0
24/02:30pm 21.0 17.2 4.1 33 8.2 NE 13 20 7 11 1025.3 - 0.0
24/02:00pm 20.3 15.7 3.9 34 7.9 NE 17 26 9 14 1025.4 - 0.0
24/01:30pm 20.4 16.3 4.4 35 7.8 NE 15 24 8 13 1025.6 - 0.0
24/01:00pm 20.1 14.7 4.6 36 7.5 ENE 22 30 12 16 1026.0 - 0.0
24/12:30pm 19.6 14.4 5.3 39 7.0 NE 22 32 12 17 1026.3 - 0.0
24/12:00pm 19.4 13.8 5.5 40 6.8 NE 24 33 13 18 1026.9 1026.9 0.0
24/11:30am 18.9 13.0 5.7 42 6.5 NE 26 32 14 17 1027.5 - 0.0
24/11:00am 17.7 11.3 5.3 44 6.0 NE 28 33 15 18 1027.8 - 0.0
24/10:30am 17.7 11.4 5.6 45 5.9 ENE 28 35 15 19 1028.0 - 0.0
24/10:00am 16.9 10.6 5.5 47 5.5 ENE 28 33 15 18 1028.0 - 0.0
24/09:30am 16.5 10.7 6.1 50 5.1 E 26 33 14 18 1027.9 - 0.0
24/09:00am 14.8 9.3 5.9 55 4.2 E 24 30 13 16 1028.0 1028.0 0.0
24/08:30am 14.1 9.0 6.0 58 3.9 E 22 26 12 14 1027.9 - 0.0
24/08:00am 13.6 9.1 6.0 60 3.6 E 19 26 10 14 1027.7 - 0.0
24/07:30am 13.1 8.3 5.8 61 3.4 E 20 28 11 15 1027.5 - 0.0
24/07:00am 13.0 7.5 5.9 62 3.4 E 24 32 13 17 1026.6 - 0.0
24/06:30am 13.1 7.6 5.8 61 3.4 E 24 32 13 17 1026.3 - 0.0
24/06:00am 13.5 8.0 5.9 60 3.6 E 24 30 13 16 1026.7 1026.7 0.0
24/05:30am 13.5 8.4 5.9 60 3.6 E 22 30 12 16 1026.7 - 0.0
24/05:00am 13.5 8.3 5.7 59 3.7 E 22 28 12 15 1026.6 - 0.0
24/04:30am 13.6 7.6 5.5 58 3.8 E 26 33 14 18 1026.3 - 0.0
24/04:00am 13.9 8.3 5.3 56 4.0 E 24 35 13 19 1026.2 - 0.0
24/03:30am 13.9 8.2 4.8 54 4.2 E 24 30 13 16 1026.0 - 0.0
24/03:00am 14.2 9.3 5.0 54 4.3 E 20 26 11 14 1026.2 1026.2 0.0
24/02:30am 13.3 9.4 5.2 58 3.8 E 15 20 8 11 1026.3 - 0.0
24/02:00am 11.8 8.6 5.2 64 3.0 SE 11 13 6 7 1026.4 - 0.0
24/01:30am 11.7 7.7 4.9 63 3.1 SE 15 15 8 8 1026.5 - 0.0
24/01:00am 11.8 8.2 5.0 63 3.1 SE 13 15 7 8 1026.7 - 0.0
24/12:30am 11.7 8.5 4.9 63 3.1 S 11 13 6 7 1026.9 - 0.0
24/12:00am 11.7 8.1 5.1 64 3.0 SSE 13 15 7 8 1027.0 1027.0 0.0
 
Date/Time
CST
Temp
°C
App
Temp
°C
Dew
Point
Rel
Hum
%
Delta-T
°C
Wind Press
QNH
hPa
Press
MSL
hPa
Rain
since 9 am
mm
Dir
 
Spd
km/h
Gust
km/h
Spd
kts
Gust
kts
23/11:30pm 11.5 8.6 4.5 62 3.2 SSE 9 11 5 6 1027.3 - 0.0
23/11:00pm 11.9 9.4 4.6 61 3.3 SE 7 9 4 5 1027.3 - 0.0
23/10:30pm 13.4 9.6 5.6 59 3.7 ESE 15 17 8 9 1027.0 - 0.0
23/10:00pm 13.2 8.9 5.4 59 3.7 E 17 19 9 10 1027.1 - 0.0
23/09:30pm 12.6 9.3 4.8 59 3.6 E 11 13 6 7 1027.4 - 0.0

Other Formats:

Comma delimited format used in spreadsheet applications
http://www.bom.gov.au/fwo/IDS60801/IDS60801.95480.axf

JavaScript Object Notation format (JSON) in row-major order
http://www.bom.gov.au/fwo/IDS60801/IDS60801.95480.json